Prairie Grove, Illinois
Current Conditions -  °F | °C
As of 4:55 AM on Monday 20 Oct 2014 (Local Time) from KUGN Reporting Station
Broken Clouds Broken Clouds  
Wind Chill: 50°   Ceiling: 11000
Heat Index: 50°   Visibility: 10mi
Dew Point: 43°   Wind: 6mph
Humidity: 77%   Direction: 240°WSW
Pressure: 29.78"   Gusts: NA
Location:  42.359°N, 88.2783°W
Report Text: KUGN 200955Z AUTO 24005KT 10SM SCT090 BKN110 10/06 A2978 RMK AO2 SLP086 T01000061
Loading
Personal Weather Stations






























Interactive Weather Map
Tropical Storm Tracking
New forecast layout! Learn more

10-Day Weather Forecast

Advertisements
Track Severe Weather on mobile